Time;durP1;ratioP1;P1;durP2;ratioP2;P2;SDS_P1;SDS_P2;PMS_P1;PMS_P2;Temp;Humidity;BMP_temperature;BMP_pressure;BME280_temperature;BME280_humidity;BME280_pressure;Samples;Min_cycle;Max_cycle;Signal;HPM_P1;HPM_P2
2022/04/10 00:01:21;;;;;;;7.45;4.90;;;;;;;8.24;58.40;100118.19;4985733;28;20549;-82
2022/04/10 00:03:48;;;;;;;10.68;5.00;;;;;;;8.25;58.41;100105.81;4994694;28;20045;-81
2022/04/10 00:06:15;;;;;;;8.70;4.68;;;;;;;8.24;58.69;100109.41;5012262;28;20041;-81
2022/04/10 00:08:41;;;;;;;9.07;4.78;;;;;;;8.23;58.53;100105.06;5010514;28;20048;-81
2022/04/10 00:11:10;;;;;;;8.60;4.88;;;;;;;8.23;58.49;100108.56;5014759;28;20120;-81
2022/04/10 00:13:37;;;;;;;10.35;4.75;;;;;;;8.24;58.49;100109.41;5029822;28;20045;-81
2022/04/10 00:16:04;;;;;;;12.15;5.10;;;;;;;8.20;58.47;100107.97;4993451;28;20042;-82
2022/04/10 00:18:31;;;;;;;10.88;5.03;;;;;;;8.18;58.46;100105.41;5013896;28;20044;-81
2022/04/10 00:20:58;;;;;;;12.57;4.80;;;;;;;8.18;58.41;100116.00;5014551;28;20050;-81
2022/04/10 00:23:25;;;;;;;10.23;5.75;;;;;;;8.16;58.35;100109.97;5008286;28;20049;-82
2022/04/10 00:25:52;;;;;;;9.18;4.85;;;;;;;8.16;58.60;100109.13;5040642;28;20056;-81
2022/04/10 00:28:18;;;;;;;8.25;5.03;;;;;;;8.13;58.37;100107.56;5021857;28;20484;-81
2022/04/10 00:30:45;;;;;;;11.55;5.05;;;;;;;8.12;58.45;100105.88;4992308;28;20053;-83
2022/04/10 00:33:12;;;;;;;11.18;4.57;;;;;;;8.10;58.59;100104.31;5010447;28;20047;-81
2022/04/10 00:35:39;;;;;;;10.07;4.95;;;;;;;8.10;58.49;100104.31;5025224;28;20045;-81
2022/04/10 00:38:07;;;;;;;9.48;4.93;;;;;;;8.08;58.64;100108.84;5034943;28;20501;-81
2022/04/10 00:40:33;;;;;;;8.02;4.60;;;;;;;8.08;58.39;100114.16;5029502;28;20103;-81
2022/04/10 00:43:00;;;;;;;11.80;5.03;;;;;;;8.05;58.39;100109.94;5028271;28;20057;-81
2022/04/10 00:45:27;;;;;;;10.13;4.18;;;;;;;8.01;58.41;100106.69;4989953;28;20060;-81
2022/04/10 00:47:54;;;;;;;10.20;4.35;;;;;;;8.01;58.66;100106.69;5013707;28;20497;-81
2022/04/10 00:50:21;;;;;;;12.45;4.85;;;;;;;8.00;58.42;100107.63;5036969;28;20046;-82
2022/04/10 00:52:49;;;;;;;11.30;4.68;;;;;;;7.98;58.43;100106.03;5036509;28;20201;-84
2022/04/10 00:55:17;;;;;;;12.35;6.05;;;;;;;7.95;58.44;100106.28;5018680;28;20107;-81
2022/04/10 00:57:47;;;;;;;11.25;4.72;;;;;;;7.91;58.60;100097.72;5029675;28;20128;-81
2022/04/10 01:00:16;;;;;;;7.97;4.55;;;;;;;7.93;58.31;100103.72;5025511;28;20052;-81
2022/04/10 01:02:43;;;;;;;8.60;4.68;;;;;;;7.92;58.31;100103.84;5009579;28;20049;-81
2022/04/10 01:05:10;;;;;;;12.00;4.88;;;;;;;7.91;58.46;100110.09;5048077;28;20110;-82
2022/04/10 01:07:38;;;;;;;9.27;4.43;;;;;;;7.89;58.55;100099.63;5018170;28;21512;-86
2022/04/10 01:10:05;;;;;;;7.78;4.43;;;;;;;7.88;58.30;100110.31;5001742;28;20071;-86
2022/04/10 01:12:34;;;;;;;8.82;4.53;;;;;;;7.86;58.38;100115.72;5045315;28;20037;-86
2022/04/10 01:15:07;;;;;;;10.00;4.60;;;;;;;7.84;58.27;100117.63;5006660;28;20044;-86
2022/04/10 01:17:36;;;;;;;8.77;4.25;;;;;;;7.82;58.61;100112.44;5013014;28;20037;-86
2022/04/10 01:20:04;;;;;;;10.20;5.53;;;;;;;7.81;58.50;100115.19;5038864;28;20484;-86
2022/04/10 01:22:36;;;;;;;12.20;5.32;;;;;;;7.78;58.46;100112.78;5048327;28;20507;-86
2022/04/10 01:25:08;;;;;;;11.20;4.70;;;;;;;7.77;58.57;100114.59;5036433;28;20041;-85
2022/04/10 01:27:38;;;;;;;7.30;4.43;;;;;;;7.76;58.54;100115.53;5021527;28;20049;-85
2022/04/10 01:30:08;;;;;;;9.95;4.50;;;;;;;7.73;58.37;100109.63;5013733;28;20051;-86
2022/04/10 01:32:35;;;;;;;8.38;4.50;;;;;;;7.73;58.42;100114.91;5021619;28;20041;-86
2022/04/10 01:35:05;;;;;;;7.85;4.13;;;;;;;7.72;58.62;100111.44;5000642;28;20104;-85
2022/04/10 01:37:34;;;;;;;13.10;4.97;;;;;;;7.70;58.56;100115.97;5032716;28;20052;-86
2022/04/10 01:40:01;;;;;;;9.43;4.43;;;;;;;7.68;58.57;100117.88;5012578;28;20475;-86
2022/04/10 01:42:30;;;;;;;9.18;4.53;;;;;;;7.67;58.63;100121.47;4997377;28;20045;-86
2022/04/10 01:44:58;;;;;;;17.40;5.35;;;;;;;7.66;58.43;100108.38;5010054;28;20500;-86
2022/04/10 01:47:26;;;;;;;9.07;4.90;;;;;;;7.64;58.68;100113.78;5004571;28;20042;-85
2022/04/10 01:53:35;;;;;;;6.93;4.38;;;;;;;7.58;58.91;100122.13;4987071;28;20042;-86
2022/04/10 01:56:04;;;;;;;11.02;4.40;;;;;;;7.58;58.67;100119.50;5032367;28;20147;-86
2022/04/10 01:59:20;;;;;;;11.70;4.90;;;;;;;7.44;59.19;100120.50;5012498;28;20091;-86
2022/04/10 02:01:48;;;;;;;11.77;5.13;;;;;;;7.53;58.74;100130.41;4924133;28;20049;-85
2022/04/10 02:04:15;;;;;;;12.80;5.22;;;;;;;7.53;58.83;100124.25;5022700;28;20048;-86
2022/04/10 02:06:42;;;;;;;13.52;5.20;;;;;;;7.52;58.89;100134.00;5009321;28;20045;-85
2022/04/10 02:09:09;;;;;;;14.35;5.55;;;;;;;7.50;58.91;100132.41;5030113;28;20481;-86
2022/04/10 02:11:37;;;;;;;11.73;5.10;;;;;;;7.49;58.59;100131.56;5013005;28;20064;-86
2022/04/10 02:14:04;;;;;;;8.70;5.22;;;;;;;7.48;58.62;100127.25;5031930;28;20052;-86
2022/04/10 02:16:31;;;;;;;11.45;5.00;;;;;;;7.47;58.75;100130.00;5024658;28;20053;-86
2022/04/10 02:18:58;;;;;;;9.63;4.60;;;;;;;7.46;58.98;100128.31;5042202;28;20380;-86
2022/04/10 02:21:25;;;;;;;14.70;5.57;;;;;;;7.43;58.81;100128.50;4997473;28;20045;-85
2022/04/10 02:23:51;;;;;;;10.48;5.20;;;;;;;7.41;58.57;100126.00;5026700;28;20076;-86
2022/04/10 02:26:18;;;;;;;9.65;4.47;;;;;;;7.40;58.93;100129.56;5010181;28;20045;-86
2022/04/10 02:28:45;;;;;;;9.85;5.05;;;;;;;7.38;58.95;100127.06;4977571;28;20072;-85
2022/04/10 02:35:18;;;;;;;11.80;5.43;;;;;;;7.31;58.87;100146.09;4989233;28;20041;-86
2022/04/10 02:37:46;;;;;;;10.93;5.63;;;;;;;7.30;58.81;100144.38;5041618;28;20376;-86
2022/04/10 02:40:14;;;;;;;14.50;5.88;;;;;;;7.28;58.68;100147.16;5040971;28;20057;-86
2022/04/10 02:47:11;;;;;;;15.25;5.57;;;;;;;7.18;59.02;100151.38;5015601;28;20025;-86
2022/04/10 02:49:38;;;;;;;13.57;6.18;;;;;;;7.18;58.90;100154.84;5021967;28;20046;-86
2022/04/10 02:52:05;;;;;;;13.98;6.28;;;;;;;7.18;58.91;100151.38;4994996;28;20046;-86
2022/04/10 02:54:32;;;;;;;10.18;5.38;;;;;;;7.17;58.83;100160.22;5000406;28;20044;-86
2022/04/10 02:57:17;;;;;;;16.40;6.72;;;;;;;7.14;59.08;100156.00;5028519;28;20103;-85
2022/04/10 03:00:04;;;;;;;12.48;5.80;;;;;;;7.12;59.01;100155.28;4982500;28;20047;-86
2022/04/10 03:02:50;;;;;;;14.27;6.55;;;;;;;7.11;59.10;100160.66;5031171;28;20457;-86
2022/04/10 03:05:36;;;;;;;13.45;6.40;;;;;;;7.08;58.92;100161.72;5022386;28;20082;-86
2022/04/10 03:08:22;;;;;;;13.60;5.43;;;;;;;7.06;58.97;100162.78;4999537;28;20708;-86
2022/04/10 03:11:08;;;;;;;12.48;6.00;;;;;;;7.04;59.23;100168.16;5002141;28;20051;-85
2022/04/10 03:18:22;;;;;;;14.63;6.97;;;;;;;6.95;59.24;100174.91;5009298;28;20036;-86
2022/04/10 03:21:07;;;;;;;10.95;5.47;;;;;;;6.94;59.28;100170.56;4984614;28;20064;-85
2022/04/10 03:23:53;;;;;;;11.73;5.68;;;;;;;6.94;59.17;100169.72;4998479;28;20491;-86
2022/04/10 03:26:38;;;;;;;16.65;6.80;;;;;;;6.91;59.11;100173.44;5018202;28;20179;-85
2022/04/10 03:29:24;;;;;;;12.45;6.20;;;;;;;6.90;59.30;100182.31;4997481;28;20047;-85
2022/04/10 03:32:09;;;;;;;14.40;5.97;;;;;;;6.90;59.37;100178.81;4982023;28;20523;-85
2022/04/10 03:34:55;;;;;;;12.57;6.82;;;;;;;6.89;59.51;100191.16;4998708;28;20049;-85
2022/04/10 03:37:43;;;;;;;15.90;6.32;;;;;;;6.87;59.28;100185.16;5022026;28;20052;-85
2022/04/10 03:40:28;;;;;;;16.08;6.20;;;;;;;6.85;59.39;100197.59;5024131;28;20045;-85
2022/04/10 03:43:14;;;;;;;13.82;6.97;;;;;;;6.83;59.64;100202.13;5007351;28;20051;-85
2022/04/10 03:50:42;;;;;;;12.23;6.25;;;;;;;6.76;59.51;100210.56;5017505;28;20033;-85
2022/04/10 03:53:29;;;;;;;11.85;6.95;;;;;;;6.76;59.29;100213.22;4999995;28;20044;-86
2022/04/10 03:56:15;;;;;;;12.73;7.10;;;;;;;6.71;59.56;100209.06;5024874;28;20105;-85
2022/04/10 03:59:01;;;;;;;16.67;6.75;;;;;;;6.69;59.40;100216.28;4985420;28;20148;-85
2022/04/10 04:01:47;;;;;;;14.10;6.70;;;;;;;6.68;59.37;100219.00;5025638;28;20060;-85
2022/04/10 04:04:36;;;;;;;16.80;7.78;;;;;;;6.64;59.15;100228.91;5001087;28;20044;-85
2022/04/10 04:07:22;;;;;;;16.25;6.85;;;;;;;6.61;59.38;100234.38;4988819;28;20048;-86
2022/04/10 04:10:08;;;;;;;11.73;6.78;;;;;;;6.61;59.51;100233.53;4990213;28;20048;-85
2022/04/10 04:17:20;;;;;;;;;;;;;;;6.34;59.97;100244.09;5000136;28;20032;-86
2022/04/10 04:20:07;;;;;;;16.08;7.20;;;;;;;6.45;59.62;100241.59;5015436;28;19927;-86
2022/04/10 04:22:57;;;;;;;15.00;7.60;;;;;;;6.41;59.48;100256.81;4997517;28;20196;-85
2022/04/10 04:25:43;;;;;;;15.80;6.78;;;;;;;6.45;59.47;100258.28;5007882;28;20041;-85
2022/04/10 04:28:35;;;;;;;17.80;7.53;;;;;;;6.42;59.44;100260.28;5023684;28;20044;-82
2022/04/10 04:31:21;;;;;;;17.70;7.38;;;;;;;6.40;59.74;100262.16;5027972;28;20126;-83
2022/04/10 04:34:11;;;;;;;14.82;6.85;;;;;;;6.40;59.74;100256.88;4992938;28;20051;-85
2022/04/10 04:40:59;;;;;;;17.55;6.68;;;;;;;6.33;59.90;100260.84;4986701;28;20060;-85
2022/04/10 04:43:51;;;;;;;13.88;7.25;;;;;;;6.29;60.15;100268.13;5014138;28;20172;-84
2022/04/10 04:47:03;;;;;;;10.02;5.22;;;;;;;6.25;63.33;100278.00;5010910;28;20083;-85
2022/04/10 04:49:48;;;;;;;19.88;7.53;;;;;;;6.36;60.69;100281.75;4944529;28;20094;-84
2022/04/10 04:52:35;;;;;;;13.95;7.47;;;;;;;6.35;60.30;100285.34;4962292;28;20056;-84
2022/04/10 04:55:20;;;;;;;17.00;8.10;;;;;;;6.33;60.28;100284.59;5019762;28;20431;-84
2022/04/10 04:58:09;;;;;;;18.35;8.23;;;;;;;6.30;60.65;100289.13;5033321;28;20045;-84
2022/04/10 05:00:56;;;;;;;21.05;9.18;;;;;;;6.32;60.37;100296.09;4981059;28;20052;-84
2022/04/10 05:03:43;;;;;;;16.70;8.80;;;;;;;6.30;60.47;100294.38;5009215;28;20180;-84
2022/04/10 05:06:29;;;;;;;17.13;8.68;;;;;;;6.30;60.40;100301.47;5021675;28;20068;-84
2022/04/10 05:09:15;;;;;;;16.65;8.55;;;;;;;6.28;60.47;100301.56;4995311;28;20040;-84
2022/04/10 05:12:32;;;;;;;20.45;8.48;;;;;;;6.18;61.10;100303.09;5036811;28;20052;-84
2022/04/10 05:15:19;;;;;;;22.95;9.38;;;;;;;6.25;60.99;100312.28;4965267;28;20094;-84
2022/04/10 05:18:06;;;;;;;17.27;7.47;;;;;;;6.23;60.65;100303.66;5015315;28;20056;-84
2022/04/10 05:20:54;;;;;;;25.00;9.60;;;;;;;6.24;60.60;100317.69;5032642;28;20063;-84
2022/04/10 05:23:42;;;;;;;17.25;7.63;;;;;;;6.22;61.05;100317.78;5017278;28;20134;-84
2022/04/10 05:27:26;;;;;;;17.95;8.07;;;;;;;6.09;61.83;100322.97;4977192;28;20051;-84
2022/04/10 05:30:13;;;;;;;14.90;8.07;;;;;;;6.18;61.11;100325.97;5003178;28;20404;-84
2022/04/10 05:33:02;;;;;;;19.42;7.90;;;;;;;6.18;61.43;100332.09;5016003;28;20072;-84
2022/04/10 05:35:49;;;;;;;17.27;9.32;;;;;;;6.19;61.45;100328.50;4997987;28;20052;-84
2022/04/10 05:38:36;;;;;;;26.60;9.45;;;;;;;6.20;61.19;100335.47;5006988;28;20056;-84
2022/04/10 05:41:28;;;;;;;16.92;9.30;;;;;;;6.17;61.61;100337.47;4971187;28;20126;-84
2022/04/10 05:44:19;;;;;;;23.13;9.68;;;;;;;6.19;61.34;100340.84;4966139;28;20143;-84
2022/04/10 05:47:05;;;;;;;23.45;10.48;;;;;;;6.19;61.76;100348.78;5001198;28;20183;-83
2022/04/10 05:49:51;;;;;;;21.08;10.38;;;;;;;6.20;61.74;100361.00;5016001;28;20044;-83
2022/04/10 05:52:46;;;;;;;24.02;11.57;;;;;;;6.14;62.04;100364.03;4983257;28;20520;-83
2022/04/10 05:55:32;;;;;;;19.70;10.15;;;;;;;6.23;62.00;100368.72;4976091;28;20432;-83
2022/04/10 05:58:23;;;;;;;24.92;10.52;;;;;;;6.21;61.79;100374.09;5004463;28;20119;-81
2022/04/10 06:01:11;;;;;;;24.52;11.13;;;;;;;6.21;62.03;100368.81;5013683;28;20400;-80
2022/04/10 06:03:56;;;;;;;23.27;11.77;;;;;;;6.14;62.00;100380.69;5027923;28;20411;-80
2022/04/10 06:06:43;;;;;;;22.33;11.07;;;;;;;6.16;62.03;100384.09;5023380;28;20064;-80
2022/04/10 06:09:36;;;;;;;18.60;9.98;;;;;;;6.16;62.18;100389.34;5003986;28;20056;-80
2022/04/10 06:12:22;;;;;;;23.58;10.93;;;;;;;6.15;62.14;100389.44;5009084;28;20044;-80
2022/04/10 06:15:09;;;;;;;26.67;12.20;;;;;;;6.12;62.50;100392.28;4996291;28;20251;-80
2022/04/10 06:17:39;;;;;;;24.08;10.15;;;;;;;6.15;62.35;100392.06;5025664;28;20384;-80
2022/04/10 06:20:06;;;;;;;17.73;9.82;;;;;;;6.15;62.57;100390.28;5029355;28;20219;-80
2022/04/10 06:22:34;;;;;;;25.77;11.05;;;;;;;6.16;62.44;100401.69;5011586;28;20094;-80
2022/04/10 06:25:03;;;;;;;22.75;10.23;;;;;;;6.16;62.38;100405.19;5013012;28;20049;-80
2022/04/10 06:27:30;;;;;;;24.48;10.43;;;;;;;6.13;62.69;100404.50;5023534;28;20473;-80
2022/04/10 06:29:57;;;;;;;24.05;11.77;;;;;;;6.13;62.51;100408.00;5026358;28;20120;-80
2022/04/10 06:32:24;;;;;;;25.02;11.48;;;;;;;6.13;62.67;100408.00;5056936;28;20053;-80
2022/04/10 06:34:54;;;;;;;21.05;10.57;;;;;;;6.15;62.74;100407.91;5003058;28;20430;-80
2022/04/10 06:37:21;;;;;;;25.02;10.15;;;;;;;6.14;62.86;100414.97;5005143;28;20041;-80
2022/04/10 06:39:48;;;;;;;24.65;10.48;;;;;;;6.14;62.68;100417.59;5007592;28;20054;-80
2022/04/10 06:42:19;;;;;;;21.50;10.00;;;;;;;6.14;62.65;100409.69;5020907;28;20796;-80
2022/04/10 06:45:08;;;;;;;23.40;11.55;;;;;;;6.12;63.00;100408.09;4966511;28;20045;-80
2022/04/10 06:47:55;;;;;;;21.52;10.20;;;;;;;6.11;63.09;100401.97;5011243;28;20095;-80
2022/04/10 06:50:28;;;;;;;24.83;10.80;;;;;;;6.12;63.20;100406.28;4982569;28;20052;-80
2022/04/10 06:52:58;;;;;;;28.65;11.32;;;;;;;6.13;63.06;100404.50;5009724;28;20038;-80
2022/04/10 06:55:25;;;;;;;25.35;11.40;;;;;;;6.13;62.96;100402.75;5007269;28;20500;-80
2022/04/10 06:57:52;;;;;;;30.02;11.05;;;;;;;6.13;62.91;100410.66;5009958;28;20045;-80
2022/04/10 07:00:19;;;;;;;27.33;10.52;;;;;;;6.14;63.27;100416.75;5010656;28;20052;-80
2022/04/10 07:02:48;;;;;;;33.15;12.18;;;;;;;6.13;63.40;100418.56;4999312;28;20045;-80
2022/04/10 07:05:15;;;;;;;28.25;11.23;;;;;;;6.14;63.17;100422.03;5009868;28;20049;-80
2022/04/10 07:07:47;;;;;;;22.13;11.10;;;;;;;6.12;63.45;100422.13;5048524;28;20033;-80
2022/04/10 07:10:14;;;;;;;25.52;11.77;;;;;;;6.13;63.51;100421.19;5044348;28;20095;-80
2022/04/10 07:12:42;;;;;;;24.42;12.20;;;;;;;6.15;63.52;100423.72;5020836;28;20053;-80
2022/04/10 07:15:09;;;;;;;24.48;12.10;;;;;;;6.14;63.75;100422.88;5018847;28;20139;-80
2022/04/10 07:17:37;;;;;;;24.58;10.95;;;;;;;6.15;63.40;100424.56;5006209;28;20057;-80
2022/04/10 07:20:08;;;;;;;25.98;11.27;;;;;;;6.14;63.77;100424.69;5036443;28;20046;-80
2022/04/10 07:25:23;;;;;;;25.70;11.82;;;;;;;6.16;63.57;100428.06;5026488;28;20115;-80
2022/04/10 07:27:51;;;;;;;30.55;12.27;;;;;;;6.15;63.79;100427.19;4992234;28;20522;-80
2022/04/10 07:30:26;;;;;;;25.52;11.90;;;;;;;6.16;63.91;100430.72;4967785;28;20378;-80
2022/04/10 07:32:58;;;;;;;28.05;13.18;;;;;;;6.16;64.04;100434.19;5005317;28;20056;-80
2022/04/10 07:35:28;;;;;;;26.67;11.35;;;;;;;6.18;64.02;100437.59;5026850;28;20079;-80
2022/04/10 07:38:10;;;;;;;27.75;12.60;;;;;;;6.21;64.19;100431.28;4992043;28;20046;-80
2022/04/10 07:40:40;;;;;;;26.15;11.95;;;;;;;6.22;64.12;100430.31;5025518;28;20046;-80
2022/04/10 07:43:12;;;;;;;25.60;11.73;;;;;;;6.22;63.94;100444.34;4998114;28;20719;-80
2022/04/10 07:48:46;;;;;;;25.35;12.07;;;;;;;6.22;64.09;100457.53;4974778;28;20046;-80
2022/04/10 07:51:17;;;;;;;34.55;13.68;;;;;;;6.22;64.20;100449.63;5024167;28;20042;-80
2022/04/10 07:53:57;;;;;;;27.60;13.05;;;;;;;6.24;64.37;100454.81;4995839;28;20595;-80
2022/04/10 07:56:25;;;;;;;26.48;12.02;;;;;;;6.24;64.49;100460.94;4998345;28;20046;-80
2022/04/10 07:58:52;;;;;;;25.98;11.93;;;;;;;6.24;64.47;100465.38;5026144;28;20056;-80
2022/04/10 08:01:24;;;;;;;39.25;13.23;;;;;;;6.26;64.65;100466.13;4993935;28;20407;-80
2022/04/10 08:03:53;;;;;;;26.75;13.05;;;;;;;6.26;64.87;100466.97;5010245;28;20488;-80
2022/04/10 08:06:43;;;;;;;27.52;11.88;;;;;;;6.23;64.98;100469.81;4994609;28;20167;-80
2022/04/10 08:09:10;;;;;;;21.55;10.93;;;;;;;6.25;64.86;100478.44;5023113;28;20074;-80
2022/04/10 08:11:39;;;;;;;26.75;11.20;;;;;;;6.26;64.96;100474.88;5031216;28;20095;-80
2022/04/10 08:14:05;;;;;;;24.30;11.43;;;;;;;6.27;64.77;100473.94;5016674;28;20095;-80
2022/04/10 08:16:32;;;;;;;27.60;11.90;;;;;;;6.30;64.80;100480.81;5043580;28;20046;-81
2022/04/10 08:18:59;;;;;;;23.83;11.65;;;;;;;6.25;65.07;100483.72;5021276;28;20066;-80
2022/04/10 08:21:26;;;;;;;28.13;11.27;;;;;;;6.25;64.76;100483.72;5000093;28;20045;-79
2022/04/10 08:23:53;;;;;;;24.98;10.55;;;;;;;6.29;64.75;100484.41;5058166;28;20132;-81
2022/04/10 08:26:19;;;;;;;29.55;11.95;;;;;;;6.21;65.78;100482.22;5026823;28;20086;-80
2022/04/10 08:28:46;;;;;;;29.90;10.30;;;;;;;6.38;65.23;100491.75;5016446;28;20045;-80
2022/04/10 08:31:13;;;;;;;19.70;9.68;;;;;;;6.22;65.09;100498.88;5025439;28;20049;-80
2022/04/10 08:33:40;;;;;;;25.20;9.88;;;;;;;6.11;65.41;100507.44;5008776;28;20133;-80
2022/04/10 08:36:06;;;;;;;24.45;10.52;;;;;;;6.07;65.15;100505.91;5047356;28;20040;-80
2022/04/10 08:38:33;;;;;;;22.70;9.50;;;;;;;6.11;64.35;100506.56;5015438;28;20064;-80
2022/04/10 08:41:01;;;;;;;19.45;9.63;;;;;;;5.98;65.46;100517.00;5029108;28;20053;-80
2022/04/10 08:43:28;;;;;;;25.15;10.65;;;;;;;5.96;65.17;100522.38;5029900;28;20049;-80
2022/04/10 08:45:57;;;;;;;22.45;9.10;;;;;;;5.88;65.27;100528.06;5027499;28;20049;-82
2022/04/10 08:48:27;;;;;;;22.13;7.75;;;;;;;5.63;65.08;100528.59;5009247;28;20096;-81
2022/04/10 08:50:57;;;;;;;11.48;6.05;;;;;;;5.75;64.21;100531.47;5029863;28;20121;-81
2022/04/10 08:53:25;;;;;;;16.15;5.78;;;;;;;5.68;64.80;100530.16;5032572;28;20458;-81
2022/04/10 08:55:52;;;;;;;15.75;6.30;;;;;;;5.43;65.82;100531.53;5029798;28;21020;-81
2022/04/10 08:58:20;;;;;;;14.65;6.28;;;;;;;5.65;65.02;100537.28;5052996;28;20064;-81
2022/04/10 09:00:46;;;;;;;15.00;6.20;;;;;;;5.59;65.12;100548.16;5020591;28;20077;-81
2022/04/10 09:03:13;;;;;;;16.92;6.22;;;;;;;5.68;65.16;100545.97;5038154;28;20045;-81
2022/04/10 09:05:40;;;;;;;20.30;5.80;;;;;;;5.57;65.73;100539.50;5010246;28;20130;-81
2022/04/10 09:08:16;;;;;;;16.83;5.47;;;;;;;5.62;65.63;100544.50;5011083;28;20034;-81
2022/04/10 09:10:53;;;;;;;16.85;6.00;;;;;;;5.23;67.69;100556.31;5022165;28;20130;-80
2022/04/10 09:13:47;;;;;;;12.82;5.50;;;;;;;5.40;66.39;100558.03;4998100;28;20121;-80
2022/04/10 09:16:16;;;;;;;22.48;5.93;;;;;;;5.29;67.20;100563.03;4996849;28;20143;-80
2022/04/10 09:18:51;;;;;;;16.52;5.68;;;;;;;5.29;67.53;100561.25;5031543;28;20049;-80
2022/04/10 09:21:21;;;;;;;20.17;5.40;;;;;;;5.34;67.17;100556.59;5041569;28;20436;-80
2022/04/10 09:23:52;;;;;;;19.60;7.22;;;;;;;5.44;66.63;100560.41;5024363;28;20065;-80
2022/04/10 09:26:19;;;;;;;18.67;5.93;;;;;;;5.53;66.57;100559.03;5015533;28;20037;-80
2022/04/10 09:28:49;;;;;;;17.00;6.15;;;;;;;5.56;66.40;100564.13;5020232;28;20069;-80
2022/04/10 09:31:34;;;;;;;16.15;5.22;;;;;;;5.54;67.06;100565.16;5028958;28;20041;-80
2022/04/10 09:34:06;;;;;;;18.20;5.68;;;;;;;5.61;66.59;100561.25;4984159;28;20416;-81
2022/04/10 09:36:39;;;;;;;15.68;6.10;;;;;;;5.65;66.58;100553.09;5016028;28;20048;-80
2022/04/10 09:39:36;;;;;;;22.42;7.60;;;;;;;5.62;67.29;100549.75;5027758;28;20112;-80
2022/04/10 09:42:10;;;;;;;14.63;5.78;;;;;;;5.68;67.43;100556.50;4985263;28;20045;-80
2022/04/10 09:44:57;;;;;;;21.85;7.13;;;;;;;5.71;66.89;100551.88;5001077;28;20042;-80
2022/04/10 09:47:26;;;;;;;17.05;5.85;;;;;;;5.73;67.21;100546.53;5024843;28;20053;-82
2022/04/10 09:50:04;;;;;;;17.33;7.07;;;;;;;5.72;68.41;100553.56;5023054;28;20107;-80
2022/04/10 09:52:35;;;;;;;17.55;7.93;;;;;;;5.79;67.73;100554.94;4989925;28;20497;-80
2022/04/10 09:55:02;;;;;;;27.75;8.57;;;;;;;5.81;67.36;100558.34;5030921;28;20056;-80
2022/04/10 09:57:30;;;;;;;27.08;8.02;;;;;;;5.83;67.51;100547.72;5012126;28;20044;-80
2022/04/10 09:59:59;;;;;;;20.02;8.02;;;;;;;5.82;67.02;100554.75;5057150;28;20071;-80
2022/04/10 10:02:26;;;;;;;20.60;7.78;;;;;;;5.84;66.93;100559.94;5036222;28;20048;-81
2022/04/10 10:04:55;;;;;;;17.85;8.15;;;;;;;5.81;66.85;100558.34;5012380;28;20409;-80
2022/04/10 10:07:21;;;;;;;21.05;8.10;;;;;;;5.81;66.64;100574.16;5011587;28;20053;-79
2022/04/10 10:09:49;;;;;;;27.08;8.82;;;;;;;5.79;66.79;100573.38;5036305;28;20045;-80
2022/04/10 10:12:17;;;;;;;23.88;8.40;;;;;;;5.77;66.68;100562.06;5031613;28;20400;-80
2022/04/10 10:14:44;;;;;;;22.92;7.72;;;;;;;5.73;68.02;100565.00;5021519;28;20045;-80
2022/04/10 10:17:11;;;;;;;21.63;9.07;;;;;;;5.78;67.19;100560.31;5029558;28;20052;-80
2022/04/10 10:19:39;;;;;;;23.23;9.10;;;;;;;5.74;67.41;100566.66;5005962;28;20137;-81
2022/04/10 10:22:08;;;;;;;23.33;9.85;;;;;;;5.68;68.08;100554.69;5029647;28;20050;-80
2022/04/10 10:24:56;;;;;;;24.17;9.77;;;;;;;5.61;69.72;100541.00;5024592;28;20477;-80
2022/04/10 10:27:53;;;;;;;22.27;9.43;;;;;;;5.55;70.93;100548.44;5009282;28;20072;-80
2022/04/10 10:31:11;;;;;;;28.05;10.27;;;;;;;5.64;68.93;100543.47;4996448;28;20052;-80
2022/04/10 10:33:40;;;;;;;25.63;9.05;;;;;;;5.54;69.48;100536.19;4940346;28;20124;-80
2022/04/10 10:36:09;;;;;;;21.83;8.38;;;;;;;5.73;68.66;100539.47;4995087;28;20049;-80
2022/04/10 10:38:35;;;;;;;29.13;9.52;;;;;;;5.81;68.84;100537.25;5023766;28;20060;-80
2022/04/10 10:41:28;;;;;;;23.02;9.38;;;;;;;5.80;69.58;100530.28;4999184;28;20049;-80
2022/04/10 10:43:55;;;;;;;24.38;9.82;;;;;;;5.93;68.94;100526.91;5014946;28;20046;-80
2022/04/10 10:46:32;;;;;;;24.90;10.57;;;;;;;5.86;70.38;100531.72;5039603;28;20033;-80
2022/04/10 10:49:13;;;;;;;24.75;10.35;;;;;;;5.93;69.37;100526.91;4994415;28;20062;-89
2022/04/10 10:51:44;;;;;;;28.67;11.05;;;;;;;5.96;69.67;100526.81;5022688;28;20045;-90
2022/04/10 10:54:24;;;;;;;32.65;12.10;;;;;;;6.04;68.60;100532.47;5055426;28;20059;-90
2022/04/10 10:56:51;;;;;;;34.97;15.10;;;;;;;5.94;69.32;100540.06;4982640;28;20041;-88
2022/04/10 10:59:25;;;;;;;33.47;13.05;;;;;;;5.63;71.47;100543.56;5029156;28;20041;-89
2022/04/10 11:02:07;;;;;;;24.63;11.88;;;;;;;5.73;69.91;100547.38;5025946;28;20045;-88
2022/04/10 11:04:49;;;;;;;34.95;12.40;;;;;;;5.66;70.23;100548.66;5011966;28;20141;-88
2022/04/10 11:07:19;;;;;;;34.50;14.25;;;;;;;5.84;69.60;100538.84;5010632;28;20412;-89
2022/04/10 11:10:05;;;;;;;32.17;12.25;;;;;;;5.67;71.76;100545.06;5018767;28;20041;-88
2022/04/10 11:12:54;;;;;;;42.30;13.52;;;;;;;5.68;70.99;100541.53;5012072;28;20743;-89
2022/04/10 11:15:22;;;;;;;26.35;11.73;;;;;;;5.77;70.75;100533.06;4992274;28;20045;-88
2022/04/10 11:17:51;;;;;;;34.08;13.65;;;;;;;5.86;69.67;100542.25;5033636;28;20048;-88
2022/04/10 11:20:23;;;;;;;24.10;12.13;;;;;;;5.81;70.25;100531.97;5040363;28;21008;-89
2022/04/10 11:22:53;;;;;;;33.63;13.85;;;;;;;5.83;70.16;100530.09;5019303;28;20091;-89
2022/04/10 11:25:30;;;;;;;29.75;13.00;;;;;;;5.79;69.90;100531.22;5022123;28;20087;-89
2022/04/10 11:28:01;;;;;;;27.40;12.27;;;;;;;5.70;70.53;100533.50;5012320;28;20045;-85
2022/04/10 11:30:31;;;;;;;34.28;13.07;;;;;;;5.84;70.19;100525.69;5025310;28;20049;-89
2022/04/10 11:33:12;;;;;;;34.97;14.13;;;;;;;5.83;72.13;100516.94;5043316;28;20429;-89
2022/04/10 11:35:44;;;;;;;37.97;13.63;;;;;;;5.97;70.76;100510.88;4997585;28;20060;-89
2022/04/10 11:38:17;;;;;;;40.72;14.75;;;;;;;6.02;70.97;100516.72;5025081;28;20125;-90
2022/04/10 11:40:48;;;;;;;;;;;;;;;5.85;71.84;100501.88;5033583;28;20049;-90
2022/04/10 11:43:16;;;;;;;36.25;14.45;;;;;;;6.03;70.48;100509.66;5026765;28;19927;-90
2022/04/10 11:45:44;;;;;;;39.78;13.60;;;;;;;6.06;70.71;100510.34;5040445;28;20460;-91
2022/04/10 11:48:11;;;;;;;33.15;15.85;;;;;;;6.08;70.78;100505.84;5024425;28;20042;-89
2022/04/10 11:50:38;;;;;;;33.08;14.18;;;;;;;6.16;70.09;100504.53;5033889;28;20564;-89
2022/04/10 11:53:07;;;;;;;34.95;15.43;;;;;;;6.16;70.64;100513.28;5031499;28;20397;-89
2022/04/10 11:55:39;;;;;;;37.67;14.85;;;;;;;6.21;70.14;100507.75;5019378;28;20053;-89
2022/04/10 11:58:21;;;;;;;43.87;15.87;;;;;;;6.16;70.65;100520.38;5033060;28;20041;-89
2022/04/10 12:01:01;;;;;;;37.65;15.80;;;;;;;6.01;70.17;100525.59;5008176;28;20444;-89
2022/04/10 12:03:35;;;;;;;44.47;16.75;;;;;;;5.86;71.77;100508.84;4979810;28;20052;-88
2022/04/10 12:06:03;;;;;;;46.28;17.75;;;;;;;5.98;71.38;100490.63;5006378;28;20081;-88
2022/04/10 12:08:35;;;;;;;39.05;17.80;;;;;;;6.06;72.09;100491.88;5015227;28;20071;-89
2022/04/10 12:11:02;;;;;;;33.97;15.40;;;;;;;6.20;72.25;100487.56;4977372;28;20055;-89
2022/04/10 12:13:34;;;;;;;30.38;14.25;;;;;;;6.27;71.35;100483.63;5028139;28;20049;-89
2022/04/10 12:16:16;;;;;;;30.00;14.30;;;;;;;6.28;71.87;100472.13;5045834;28;20132;-88
2022/04/10 12:18:48;;;;;;;35.92;14.10;;;;;;;6.35;71.08;100476.09;5027637;28;20049;-86
2022/04/10 12:21:15;;;;;;;34.53;15.35;;;;;;;6.35;71.45;100477.91;5026501;28;20057;-89
2022/04/10 12:23:42;;;;;;;39.30;15.00;;;;;;;6.35;70.54;100484.00;5015163;28;20046;-90
2022/04/10 12:26:09;;;;;;;31.50;15.80;;;;;;;6.37;70.97;100482.13;5030263;28;20056;-90
2022/04/10 12:28:38;;;;;;;34.22;15.05;;;;;;;6.48;71.24;100484.97;5026502;28;20047;-89
2022/04/10 12:31:06;;;;;;;39.45;15.93;;;;;;;6.47;71.15;100475.38;5024336;28;20124;-89
2022/04/10 12:33:33;;;;;;;36.85;15.60;;;;;;;6.47;71.63;100478.00;5025215;28;20068;-90
2022/04/10 12:36:15;;;;;;;45.70;18.10;;;;;;;6.42;72.94;100469.53;4992382;28;20394;-89